DLH127 EDDF-EGKK
Flight info
| Callsign | DLH127 |
|---|---|
| Flight time | 1h 9m |
| Altitude | 34000 |
| Route | SOBRA2L/18 SOBRA Y180 BITBU Y181 DEMUL M624 BUB L608 DENUT L610 TEBRA |
| Aircraft | A359/H-SDE2E3GHIJ3J4J5LM1ORWXY/LB1D1 |
Departure
| Time | 2026-05-05 16:42 |
|---|---|
| Airport | Frankfurt Main Airport (EDDF) |
Arrival
| Time | 2026-05-05 17:51 |
|---|---|
| Airport | London Gatwick Airport (EGKK) |
| Time | Latitude | Longitude | Altitude | Speed | Heading |
|---|---|---|---|---|---|
| 2026-05-05 15:59 | 50.05070 | 8.58742 | 370 ft | 0 kts | 339° |
| 2026-05-05 16:01 | 50.05070 | 8.58743 | 370 ft | 0 kts | 339° |
| 2026-05-05 16:02 | 50.05069 | 8.58743 | 370 ft | 0 kts | 339° |
| 2026-05-05 16:25 | 50.05050 | 8.58756 | 375 ft | 2 kts | 332° |
| 2026-05-05 16:25 | 50.05036 | 8.58770 | 371 ft | 2 kts | 324° |
| 2026-05-05 16:26 | 50.05013 | 8.58807 | 370 ft | 2 kts | 300° |
| 2026-05-05 16:26 | 50.05003 | 8.58855 | 370 ft | 2 kts | 274° |
| 2026-05-05 16:27 | 50.05003 | 8.58880 | 370 ft | 2 kts | 264° |
| 2026-05-05 16:27 | 50.05006 | 8.58906 | 373 ft | 2 kts | 256° |
| 2026-05-05 16:27 | 50.05009 | 8.58922 | 371 ft | 1 kts | 252° |
| 2026-05-05 16:27 | 50.05010 | 8.58925 | 370 ft | 0 kts | 251° |
| 2026-05-05 16:32 | 50.05009 | 8.58922 | 371 ft | 3 kts | 251° |
| 2026-05-05 16:32 | 50.04992 | 8.58849 | 370 ft | 10 kts | 250° |
| 2026-05-05 16:32 | 50.04965 | 8.58742 | 371 ft | 12 kts | 248° |
| 2026-05-05 16:33 | 50.04933 | 8.58610 | 372 ft | 14 kts | 249° |
| 2026-05-05 16:33 | 50.04895 | 8.58452 | 373 ft | 17 kts | 250° |
| 2026-05-05 16:33 | 50.04854 | 8.58276 | 371 ft | 19 kts | 250° |
| 2026-05-05 16:33 | 50.04805 | 8.58078 | 371 ft | 20 kts | 247° |
| 2026-05-05 16:34 | 50.04717 | 8.57899 | 376 ft | 22 kts | 234° |
| 2026-05-05 16:34 | 50.04654 | 8.57679 | 371 ft | 23 kts | 250° |
| 2026-05-05 16:34 | 50.04596 | 8.57437 | 373 ft | 25 kts | 249° |
| 2026-05-05 16:34 | 50.04534 | 8.57180 | 372 ft | 26 kts | 249° |
| 2026-05-05 16:35 | 50.04469 | 8.56909 | 375 ft | 27 kts | 250° |
| 2026-05-05 16:35 | 50.04403 | 8.56628 | 373 ft | 27 kts | 250° |
| 2026-05-05 16:35 | 50.04336 | 8.56349 | 371 ft | 28 kts | 250° |
| 2026-05-05 16:35 | 50.04267 | 8.56059 | 374 ft | 29 kts | 250° |
| 2026-05-05 16:36 | 50.04194 | 8.55755 | 373 ft | 30 kts | 250° |
| 2026-05-05 16:36 | 50.04122 | 8.55450 | 374 ft | 29 kts | 250° |
| 2026-05-05 16:36 | 50.04053 | 8.55162 | 375 ft | 29 kts | 250° |
| 2026-05-05 16:36 | 50.03989 | 8.54892 | 370 ft | 27 kts | 250° |
| 2026-05-05 16:37 | 50.03922 | 8.54615 | 375 ft | 28 kts | 250° |
| 2026-05-05 16:37 | 50.03849 | 8.54351 | 373 ft | 22 kts | 239° |
| 2026-05-05 16:37 | 50.03777 | 8.54134 | 372 ft | 23 kts | 250° |
| 2026-05-05 16:37 | 50.03726 | 8.53906 | 373 ft | 23 kts | 249° |
| 2026-05-05 16:38 | 50.03668 | 8.53669 | 372 ft | 24 kts | 249° |
| 2026-05-05 16:38 | 50.03604 | 8.53420 | 374 ft | 25 kts | 249° |
| 2026-05-05 16:38 | 50.03541 | 8.53156 | 373 ft | 26 kts | 250° |
| 2026-05-05 16:38 | 50.03480 | 8.52902 | 373 ft | 21 kts | 248° |
| 2026-05-05 16:39 | 50.03437 | 8.52747 | 374 ft | 4 kts | 249° |
| 2026-05-05 16:39 | 50.03437 | 8.52746 | 374 ft | 0 kts | 249° |
| 2026-05-05 16:40 | 50.03436 | 8.52742 | 374 ft | 2 kts | 249° |
| 2026-05-05 16:40 | 50.03422 | 8.52687 | 373 ft | 9 kts | 249° |
| 2026-05-05 16:40 | 50.03367 | 8.52605 | 375 ft | 15 kts | 197° |
| 2026-05-05 16:41 | 50.03278 | 8.52595 | 376 ft | 0 kts | 179° |
| 2026-05-05 16:41 | 50.03132 | 8.52598 | 369 ft | 63 kts | 180° |
| 2026-05-05 16:41 | 50.02337 | 8.52607 | 378 ft | 162 kts | 180° |
| 2026-05-05 16:42 | 50.01024 | 8.52620 | 989 ft | 199 kts | 181° |
| 2026-05-05 16:42 | 49.99593 | 8.52647 | 2125 ft | 219 kts | 181° |
| 2026-05-05 16:42 | 49.97930 | 8.52736 | 2896 ft | 247 kts | 179° |
| 2026-05-05 16:42 | 49.96283 | 8.52850 | 3561 ft | 233 kts | 179° |
| 2026-05-05 16:43 | 49.94662 | 8.52972 | 3919 ft | 228 kts | 178° |
| 2026-05-05 16:43 | 49.93097 | 8.53083 | 3997 ft | 228 kts | 179° |
| 2026-05-05 16:43 | 49.91491 | 8.53196 | 3997 ft | 229 kts | 178° |
| 2026-05-05 16:43 | 49.89912 | 8.53314 | 3990 ft | 230 kts | 178° |
| 2026-05-05 16:44 | 49.88315 | 8.53422 | 3994 ft | 229 kts | 179° |
| 2026-05-05 16:44 | 49.86659 | 8.53103 | 4304 ft | 257 kts | 195° |
| 2026-05-05 16:44 | 49.84909 | 8.52186 | 5332 ft | 275 kts | 200° |
| 2026-05-05 16:44 | 49.83180 | 8.51174 | 6596 ft | 259 kts | 201° |
| 2026-05-05 16:45 | 49.81496 | 8.50179 | 7307 ft | 261 kts | 201° |
| 2026-05-05 16:45 | 49.79784 | 8.49188 | 7972 ft | 264 kts | 200° |
| 2026-05-05 16:45 | 49.78087 | 8.48072 | 8683 ft | 267 kts | 208° |
| 2026-05-05 16:45 | 49.76681 | 8.46194 | 9430 ft | 271 kts | 232° |
| 2026-05-05 16:46 | 49.75920 | 8.43518 | 10099 ft | 280 kts | 256° |
| 2026-05-05 16:46 | 49.75959 | 8.40415 | 10449 ft | 301 kts | 278° |
| 2026-05-05 16:46 | 49.76295 | 8.38254 | 10688 ft | 312 kts | 281° |
| 2026-05-05 16:46 | 49.76874 | 8.34949 | 11045 ft | 325 kts | 282° |
| 2026-05-05 16:47 | 49.77468 | 8.31495 | 11401 ft | 338 kts | 282° |
| 2026-05-05 16:47 | 49.78070 | 8.27931 | 11860 ft | 345 kts | 282° |
| 2026-05-05 16:47 | 49.78672 | 8.24313 | 12371 ft | 351 kts | 282° |
| 2026-05-05 16:47 | 49.79268 | 8.20674 | 12929 ft | 355 kts | 281° |
| 2026-05-05 16:48 | 49.79880 | 8.16891 | 13470 ft | 360 kts | 281° |
| 2026-05-05 16:48 | 49.80478 | 8.13174 | 13960 ft | 363 kts | 281° |
| 2026-05-05 16:48 | 49.81086 | 8.09363 | 14446 ft | 366 kts | 281° |
| 2026-05-05 16:48 | 49.81697 | 8.05526 | 14933 ft | 369 kts | 281° |
| 2026-05-05 16:49 | 49.82310 | 8.01652 | 15423 ft | 371 kts | 281° |
| 2026-05-05 16:49 | 49.82926 | 7.97750 | 15916 ft | 374 kts | 281° |
| 2026-05-05 16:49 | 49.83543 | 7.93826 | 16392 ft | 376 kts | 281° |
| 2026-05-05 16:49 | 49.84162 | 7.89880 | 16857 ft | 379 kts | 281° |
| 2026-05-05 16:50 | 49.84785 | 7.85903 | 17337 ft | 381 kts | 281° |
| 2026-05-05 16:50 | 49.85412 | 7.81893 | 17837 ft | 384 kts | 281° |
| 2026-05-05 16:50 | 49.86039 | 7.77867 | 18273 ft | 386 kts | 281° |
| 2026-05-05 16:50 | 49.86677 | 7.73808 | 18653 ft | 389 kts | 281° |
| 2026-05-05 16:51 | 49.87319 | 7.69721 | 19053 ft | 391 kts | 281° |
| 2026-05-05 16:51 | 49.87959 | 7.65618 | 19460 ft | 393 kts | 281° |
| 2026-05-05 16:51 | 49.88600 | 7.61483 | 19847 ft | 395 kts | 281° |
| 2026-05-05 16:51 | 49.89243 | 7.57324 | 20247 ft | 398 kts | 281° |
| 2026-05-05 16:52 | 49.89887 | 7.53137 | 20619 ft | 400 kts | 281° |
| 2026-05-05 16:52 | 49.90532 | 7.48926 | 21024 ft | 402 kts | 281° |
| 2026-05-05 16:52 | 49.91179 | 7.44696 | 21407 ft | 404 kts | 281° |
| 2026-05-05 16:52 | 49.91827 | 7.40447 | 21795 ft | 406 kts | 281° |
| 2026-05-05 16:53 | 49.92477 | 7.36179 | 22174 ft | 408 kts | 281° |
| 2026-05-05 16:53 | 49.93128 | 7.31891 | 22566 ft | 409 kts | 281° |
| 2026-05-05 16:53 | 49.93781 | 7.27574 | 22942 ft | 411 kts | 281° |
| 2026-05-05 16:53 | 49.94436 | 7.23243 | 23316 ft | 413 kts | 281° |
| 2026-05-05 16:54 | 49.95091 | 7.18895 | 23628 ft | 415 kts | 280° |
| 2026-05-05 16:54 | 49.95747 | 7.14527 | 23966 ft | 416 kts | 280° |
| 2026-05-05 16:54 | 49.96407 | 7.10128 | 24273 ft | 418 kts | 280° |
| 2026-05-05 16:54 | 49.97066 | 7.05721 | 24597 ft | 420 kts | 280° |
| 2026-05-05 16:55 | 49.97724 | 7.01297 | 24922 ft | 421 kts | 279° |
| 2026-05-05 16:55 | 49.98384 | 6.96854 | 25244 ft | 423 kts | 279° |
| 2026-05-05 16:55 | 49.98954 | 6.92431 | 25564 ft | 423 kts | 275° |
| 2026-05-05 16:55 | 49.99175 | 6.87885 | 25919 ft | 422 kts | 268° |
| 2026-05-05 16:56 | 49.99170 | 6.83325 | 26286 ft | 423 kts | 265° |
| 2026-05-05 16:56 | 49.99080 | 6.78744 | 26680 ft | 424 kts | 264° |
| 2026-05-05 16:56 | 49.98941 | 6.74169 | 27068 ft | 426 kts | 263° |
| 2026-05-05 16:56 | 49.98777 | 6.69561 | 27471 ft | 428 kts | 263° |
| 2026-05-05 16:57 | 49.98609 | 6.64935 | 27887 ft | 430 kts | 263° |
| 2026-05-05 16:57 | 49.98444 | 6.60290 | 28328 ft | 432 kts | 263° |
| 2026-05-05 16:57 | 49.98285 | 6.55612 | 28754 ft | 435 kts | 263° |
| 2026-05-05 16:57 | 49.98131 | 6.50906 | 29189 ft | 437 kts | 263° |
| 2026-05-05 16:58 | 49.97979 | 6.46161 | 29634 ft | 440 kts | 262° |
| 2026-05-05 16:58 | 49.97826 | 6.41421 | 30071 ft | 442 kts | 262° |
| 2026-05-05 16:58 | 49.97671 | 6.36632 | 30487 ft | 444 kts | 262° |
| 2026-05-05 16:58 | 49.97514 | 6.31848 | 30898 ft | 446 kts | 262° |
| 2026-05-05 16:59 | 49.97353 | 6.27023 | 31297 ft | 448 kts | 262° |
| 2026-05-05 16:59 | 49.97190 | 6.22183 | 31719 ft | 449 kts | 262° |
| 2026-05-05 16:59 | 49.97024 | 6.17318 | 32073 ft | 452 kts | 262° |
| 2026-05-05 16:59 | 49.96849 | 6.12421 | 32418 ft | 455 kts | 262° |
| 2026-05-05 17:00 | 49.96677 | 6.07508 | 32756 ft | 458 kts | 263° |
| 2026-05-05 17:00 | 49.96825 | 6.02543 | 33105 ft | 466 kts | 272° |
| 2026-05-05 17:00 | 49.97560 | 5.97574 | 33415 ft | 478 kts | 283° |
| 2026-05-05 17:00 | 49.98975 | 5.92848 | 33747 ft | 489 kts | 295° |
| 2026-05-05 17:01 | 50.01043 | 5.88653 | 33819 ft | 493 kts | 309° |
| 2026-05-05 17:01 | 50.03705 | 5.85263 | 33825 ft | 497 kts | 321° |
| 2026-05-05 17:01 | 50.09021 | 5.78577 | 33824 ft | 489 kts | 313° |
| 2026-05-05 17:02 | 50.14024 | 5.71392 | 33827 ft | 489 kts | 311° |
| 2026-05-05 17:02 | 50.18928 | 5.64072 | 33832 ft | 489 kts | 311° |
| 2026-05-05 17:03 | 50.23807 | 5.56664 | 33832 ft | 489 kts | 310° |
| 2026-05-05 17:03 | 50.28665 | 5.49230 | 33835 ft | 489 kts | 310° |
| 2026-05-05 17:04 | 50.33523 | 5.41789 | 33839 ft | 489 kts | 310° |
| 2026-05-05 17:04 | 50.38365 | 5.34390 | 33846 ft | 489 kts | 310° |
| 2026-05-05 17:05 | 50.43231 | 5.26943 | 33853 ft | 489 kts | 310° |
| 2026-05-05 17:05 | 50.48092 | 5.19481 | 33852 ft | 489 kts | 310° |
| 2026-05-05 17:06 | 50.52946 | 5.12003 | 33850 ft | 489 kts | 311° |
| 2026-05-05 17:06 | 50.57800 | 5.04502 | 33854 ft | 489 kts | 311° |
| 2026-05-05 17:07 | 50.62649 | 4.96986 | 33853 ft | 489 kts | 311° |
| 2026-05-05 17:07 | 50.67495 | 4.89463 | 33854 ft | 490 kts | 311° |
| 2026-05-05 17:08 | 50.72348 | 4.81902 | 33868 ft | 490 kts | 311° |
| 2026-05-05 17:08 | 50.77194 | 4.74328 | 33877 ft | 490 kts | 311° |
| 2026-05-05 17:09 | 50.82037 | 4.66724 | 33961 ft | 492 kts | 313° |
| 2026-05-05 17:09 | 50.86902 | 4.59028 | 33885 ft | 496 kts | 313° |
| 2026-05-05 17:10 | 50.91349 | 4.50736 | 33889 ft | 492 kts | 301° |
| 2026-05-05 17:10 | 50.95030 | 4.41622 | 33886 ft | 491 kts | 299° |
| 2026-05-05 17:11 | 50.98553 | 4.32366 | 33881 ft | 490 kts | 298° |
| 2026-05-05 17:11 | 51.02049 | 4.23072 | 33880 ft | 490 kts | 298° |
| 2026-05-05 17:12 | 51.05550 | 4.13806 | 33874 ft | 489 kts | 298° |
| 2026-05-05 17:12 | 51.09060 | 4.04542 | 33874 ft | 489 kts | 298° |
| 2026-05-05 17:13 | 51.12572 | 3.95252 | 33876 ft | 489 kts | 298° |
| 2026-05-05 17:13 | 51.16071 | 3.85958 | 33875 ft | 490 kts | 298° |
| 2026-05-05 17:14 | 51.19519 | 3.76761 | 33875 ft | 490 kts | 298° |
| 2026-05-05 17:14 | 51.22858 | 3.67305 | 33881 ft | 488 kts | 291° |
| 2026-05-05 17:15 | 51.24849 | 3.57047 | 33880 ft | 483 kts | 281° |
| 2026-05-05 17:15 | 51.26291 | 3.46580 | 33885 ft | 482 kts | 278° |
| 2026-05-05 17:16 | 51.27615 | 3.36096 | 33892 ft | 481 kts | 278° |
| 2026-05-05 17:16 | 51.28915 | 3.25599 | 33898 ft | 481 kts | 278° |
| 2026-05-05 17:17 | 51.30233 | 3.15128 | 33904 ft | 481 kts | 278° |
| 2026-05-05 17:17 | 51.31559 | 3.04645 | 33908 ft | 481 kts | 278° |
| 2026-05-05 17:18 | 51.32878 | 2.94178 | 33908 ft | 480 kts | 278° |
| 2026-05-05 17:18 | 51.34185 | 2.83712 | 33910 ft | 480 kts | 278° |
| 2026-05-05 17:19 | 51.35482 | 2.73250 | 33912 ft | 479 kts | 278° |
| 2026-05-05 17:19 | 51.36773 | 2.62786 | 33911 ft | 479 kts | 278° |
| 2026-05-05 17:20 | 51.38046 | 2.52401 | 33153 ft | 473 kts | 278° |
| 2026-05-05 17:20 | 51.38677 | 2.47205 | 32053 ft | 479 kts | 278° |
| 2026-05-05 17:20 | 51.39313 | 2.41929 | 30977 ft | 485 kts | 278° |
| 2026-05-05 17:21 | 51.39952 | 2.36601 | 29892 ft | 490 kts | 278° |
| 2026-05-05 17:21 | 51.40597 | 2.31220 | 28750 ft | 493 kts | 278° |
| 2026-05-05 17:21 | 51.41243 | 2.25827 | 27814 ft | 492 kts | 278° |
| 2026-05-05 17:22 | 51.42516 | 2.15223 | 26240 ft | 484 kts | 279° |
| 2026-05-05 17:22 | 51.43144 | 2.09960 | 25537 ft | 478 kts | 278° |
| 2026-05-05 17:22 | 51.43756 | 2.04757 | 24900 ft | 472 kts | 279° |
| 2026-05-05 17:22 | 51.44356 | 1.99660 | 24571 ft | 459 kts | 279° |
| 2026-05-05 17:23 | 51.44955 | 1.94704 | 24274 ft | 446 kts | 279° |
| 2026-05-05 17:23 | 51.45546 | 1.89901 | 24004 ft | 433 kts | 280° |
| 2026-05-05 17:23 | 51.46119 | 1.85232 | 23745 ft | 421 kts | 279° |
| 2026-05-05 17:23 | 51.46658 | 1.80670 | 23501 ft | 410 kts | 279° |
| 2026-05-05 17:24 | 51.47176 | 1.76238 | 23192 ft | 399 kts | 279° |
| 2026-05-05 17:24 | 51.47673 | 1.71907 | 22720 ft | 393 kts | 279° |
| 2026-05-05 17:24 | 51.48162 | 1.67611 | 22175 ft | 390 kts | 279° |
| 2026-05-05 17:24 | 51.48541 | 1.63324 | 21584 ft | 387 kts | 272° |
| 2026-05-05 17:25 | 51.48332 | 1.59040 | 21009 ft | 384 kts | 257° |
| 2026-05-05 17:25 | 51.47840 | 1.56323 | 20651 ft | 383 kts | 251° |
| 2026-05-05 17:25 | 51.46620 | 1.50966 | 19924 ft | 380 kts | 249° |
| 2026-05-05 17:25 | 51.45701 | 1.47071 | 19602 ft | 364 kts | 249° |
| 2026-05-05 17:26 | 51.44830 | 1.43382 | 19023 ft | 346 kts | 249° |
| 2026-05-05 17:26 | 51.43915 | 1.39849 | 18191 ft | 340 kts | 243° |
| 2026-05-05 17:26 | 51.42601 | 1.36744 | 17203 ft | 336 kts | 227° |
| 2026-05-05 17:26 | 51.40868 | 1.34284 | 16323 ft | 329 kts | 217° |
| 2026-05-05 17:27 | 51.39046 | 1.32117 | 15463 ft | 324 kts | 216° |
| 2026-05-05 17:27 | 51.37237 | 1.30008 | 14591 ft | 320 kts | 216° |
| 2026-05-05 17:27 | 51.35444 | 1.27911 | 13742 ft | 317 kts | 216° |
| 2026-05-05 17:27 | 51.33678 | 1.25839 | 12841 ft | 313 kts | 216° |
| 2026-05-05 17:28 | 51.31942 | 1.23807 | 12467 ft | 306 kts | 216° |
| 2026-05-05 17:28 | 51.30261 | 1.21848 | 12517 ft | 300 kts | 216° |
| 2026-05-05 17:28 | 51.28561 | 1.19855 | 12900 ft | 307 kts | 216° |
| 2026-05-05 17:28 | 51.26810 | 1.17784 | 13567 ft | 310 kts | 216° |
| 2026-05-05 17:29 | 51.25080 | 1.15738 | 13884 ft | 309 kts | 216° |
| 2026-05-05 17:29 | 51.23350 | 1.13696 | 13931 ft | 310 kts | 216° |
| 2026-05-05 17:29 | 51.21610 | 1.11649 | 13934 ft | 311 kts | 216° |
| 2026-05-05 17:29 | 51.19867 | 1.09602 | 13931 ft | 312 kts | 216° |
| 2026-05-05 17:30 | 51.18114 | 1.07548 | 13934 ft | 312 kts | 216° |
| 2026-05-05 17:30 | 51.16387 | 1.05524 | 13846 ft | 313 kts | 216° |
| 2026-05-05 17:30 | 51.14637 | 1.03478 | 13595 ft | 312 kts | 216° |
| 2026-05-05 17:30 | 51.12866 | 1.01410 | 13334 ft | 311 kts | 216° |
| 2026-05-05 17:31 | 51.11147 | 0.99405 | 13072 ft | 310 kts | 216° |
| 2026-05-05 17:31 | 51.09404 | 0.97371 | 12818 ft | 309 kts | 216° |
| 2026-05-05 17:31 | 51.07687 | 0.95372 | 12568 ft | 304 kts | 216° |
| 2026-05-05 17:31 | 51.06073 | 0.93270 | 12386 ft | 295 kts | 226° |
| 2026-05-05 17:32 | 51.04947 | 0.90652 | 12260 ft | 283 kts | 242° |
| 2026-05-05 17:32 | 51.04182 | 0.87788 | 12188 ft | 281 kts | 251° |
| 2026-05-05 17:32 | 51.03608 | 0.84830 | 11862 ft | 279 kts | 254° |
| 2026-05-05 17:32 | 51.03102 | 0.81863 | 11506 ft | 278 kts | 256° |
| 2026-05-05 17:33 | 51.02627 | 0.78908 | 11269 ft | 272 kts | 256° |
| 2026-05-05 17:33 | 51.02179 | 0.76031 | 11070 ft | 266 kts | 257° |
| 2026-05-05 17:33 | 51.01742 | 0.73197 | 10786 ft | 263 kts | 257° |
| 2026-05-05 17:33 | 51.01313 | 0.70387 | 10506 ft | 261 kts | 257° |
| 2026-05-05 17:34 | 51.00888 | 0.67599 | 10214 ft | 259 kts | 257° |
| 2026-05-05 17:34 | 51.00467 | 0.64835 | 9928 ft | 257 kts | 257° |
| 2026-05-05 17:34 | 51.00049 | 0.62090 | 9629 ft | 255 kts | 257° |
| 2026-05-05 17:34 | 50.99632 | 0.59360 | 9379 ft | 254 kts | 258° |
| 2026-05-05 17:35 | 50.99357 | 0.57563 | 9167 ft | 253 kts | 258° |
| 2026-05-05 17:35 | 50.98944 | 0.54847 | 8845 ft | 252 kts | 258° |
| 2026-05-05 17:35 | 50.98532 | 0.52154 | 8532 ft | 251 kts | 258° |
| 2026-05-05 17:35 | 50.98198 | 0.49451 | 8216 ft | 249 kts | 266° |
| 2026-05-05 17:36 | 50.98098 | 0.46729 | 8051 ft | 247 kts | 270° |
| 2026-05-05 17:36 | 50.98050 | 0.44002 | 8044 ft | 247 kts | 271° |
| 2026-05-05 17:36 | 50.98005 | 0.41283 | 8051 ft | 247 kts | 271° |
| 2026-05-05 17:36 | 50.97963 | 0.38758 | 8049 ft | 247 kts | 271° |
| 2026-05-05 17:37 | 50.97918 | 0.36044 | 8045 ft | 246 kts | 271° |
| 2026-05-05 17:37 | 50.97872 | 0.33327 | 8039 ft | 246 kts | 271° |
| 2026-05-05 17:37 | 50.97826 | 0.30609 | 8041 ft | 246 kts | 271° |
| 2026-05-05 17:37 | 50.97781 | 0.27901 | 8029 ft | 246 kts | 271° |
| 2026-05-05 17:38 | 50.97737 | 0.25183 | 8022 ft | 246 kts | 271° |
| 2026-05-05 17:38 | 50.97694 | 0.22475 | 8014 ft | 246 kts | 271° |
| 2026-05-05 17:38 | 50.97651 | 0.19766 | 8007 ft | 246 kts | 270° |
| 2026-05-05 17:38 | 50.97609 | 0.17048 | 7999 ft | 246 kts | 271° |
| 2026-05-05 17:39 | 50.97566 | 0.14335 | 8037 ft | 246 kts | 271° |
| 2026-05-05 17:39 | 50.97525 | 0.11632 | 7746 ft | 244 kts | 271° |
| 2026-05-05 17:39 | 50.97481 | 0.08940 | 7439 ft | 243 kts | 271° |
| 2026-05-05 17:39 | 50.97507 | 0.06262 | 7115 ft | 242 kts | 275° |
| 2026-05-05 17:40 | 50.97597 | 0.03607 | 6825 ft | 241 kts | 276° |
| 2026-05-05 17:40 | 50.97703 | 0.00963 | 6522 ft | 240 kts | 277° |
| 2026-05-05 17:40 | 50.97796 | -0.01674 | 6210 ft | 239 kts | 276° |
| 2026-05-05 17:40 | 50.97879 | -0.04308 | 5886 ft | 238 kts | 276° |
| 2026-05-05 17:41 | 50.97960 | -0.06924 | 5576 ft | 237 kts | 276° |
| 2026-05-05 17:41 | 50.98039 | -0.09533 | 5250 ft | 237 kts | 276° |
| 2026-05-05 17:41 | 50.98117 | -0.12144 | 4952 ft | 236 kts | 276° |
| 2026-05-05 17:41 | 50.98196 | -0.14737 | 4634 ft | 235 kts | 276° |
| 2026-05-05 17:42 | 50.98277 | -0.17316 | 4308 ft | 234 kts | 276° |
| 2026-05-05 17:42 | 50.98359 | -0.19871 | 3970 ft | 234 kts | 276° |
| 2026-05-05 17:42 | 50.98445 | -0.22479 | 3639 ft | 234 kts | 276° |
| 2026-05-05 17:42 | 50.98535 | -0.25068 | 3309 ft | 234 kts | 276° |
| 2026-05-05 17:43 | 50.98630 | -0.27638 | 3032 ft | 233 kts | 276° |
| 2026-05-05 17:43 | 50.98729 | -0.30163 | 2994 ft | 234 kts | 276° |
| 2026-05-05 17:43 | 50.98835 | -0.32763 | 2982 ft | 230 kts | 276° |
| 2026-05-05 17:43 | 50.98931 | -0.35189 | 2975 ft | 216 kts | 276° |
| 2026-05-05 17:44 | 50.99027 | -0.37576 | 2990 ft | 213 kts | 276° |
| 2026-05-05 17:44 | 50.99228 | -0.39849 | 2978 ft | 210 kts | 291° |
| 2026-05-05 17:44 | 51.00058 | -0.41706 | 2980 ft | 199 kts | 325° |
| 2026-05-05 17:44 | 51.01206 | -0.42708 | 2976 ft | 185 kts | 338° |
| 2026-05-05 17:45 | 51.02385 | -0.43465 | 2989 ft | 183 kts | 340° |
| 2026-05-05 17:45 | 51.03575 | -0.44196 | 2988 ft | 183 kts | 340° |
| 2026-05-05 17:45 | 51.04761 | -0.44920 | 2934 ft | 182 kts | 340° |
| 2026-05-05 17:45 | 51.05932 | -0.45641 | 2693 ft | 181 kts | 341° |
| 2026-05-05 17:46 | 51.07107 | -0.46365 | 2409 ft | 182 kts | 340° |
| 2026-05-05 17:46 | 51.08290 | -0.47102 | 2137 ft | 182 kts | 341° |
| 2026-05-05 17:46 | 51.09481 | -0.47717 | 1989 ft | 180 kts | 354° |
| 2026-05-05 17:46 | 51.10652 | -0.47238 | 1985 ft | 177 kts | 40° |
| 2026-05-05 17:47 | 51.11268 | -0.45606 | 2059 ft | 176 kts | 72° |
| 2026-05-05 17:47 | 51.11463 | -0.43660 | 2005 ft | 179 kts | 81° |
| 2026-05-05 17:47 | 51.11649 | -0.41705 | 1987 ft | 178 kts | 78° |
| 2026-05-05 17:47 | 51.11929 | -0.39844 | 1984 ft | 165 kts | 74° |
| 2026-05-05 17:48 | 51.12183 | -0.38135 | 1984 ft | 155 kts | 75° |
| 2026-05-05 17:48 | 51.12414 | -0.36458 | 1997 ft | 156 kts | 76° |
| 2026-05-05 17:48 | 51.12644 | -0.34761 | 1989 ft | 157 kts | 76° |
| 2026-05-05 17:48 | 51.12880 | -0.33054 | 1829 ft | 158 kts | 76° |
| 2026-05-05 17:49 | 51.13114 | -0.31363 | 1614 ft | 155 kts | 76° |
| 2026-05-05 17:49 | 51.13342 | -0.29691 | 1399 ft | 153 kts | 77° |
| 2026-05-05 17:49 | 51.13562 | -0.28093 | 1181 ft | 142 kts | 76° |
| 2026-05-05 17:49 | 51.13767 | -0.26621 | 986 ft | 132 kts | 76° |
| 2026-05-05 17:50 | 51.13957 | -0.25243 | 806 ft | 124 kts | 78° |
| 2026-05-05 17:50 | 51.14141 | -0.23903 | 655 ft | 124 kts | 77° |
| 2026-05-05 17:50 | 51.14326 | -0.22558 | 476 ft | 126 kts | 78° |
| 2026-05-05 17:50 | 51.14521 | -0.21212 | 308 ft | 124 kts | 76° |
| 2026-05-05 17:51 | 51.14704 | -0.19873 | 221 ft | 121 kts | 79° |
| 2026-05-05 17:51 | 51.14860 | -0.18717 | 215 ft | 79 kts | 77° |
| 2026-05-05 17:51 | 51.14942 | -0.18142 | 222 ft | 45 kts | 74° |
| 2026-05-05 17:51 | 51.15078 | -0.17783 | 218 ft | 26 kts | 27° |
| 2026-05-05 17:52 | 51.15104 | -0.17772 | 220 ft | 0 kts | 9° |
| 2026-05-05 17:53 | 51.15121 | -0.17768 | 216 ft | 5 kts | 9° |
| 2026-05-05 17:53 | 51.15123 | -0.17767 | 216 ft | 0 kts | 9° |
| 2026-05-05 17:53 | 51.15137 | -0.17765 | 215 ft | 5 kts | 4° |
| 2026-05-05 17:54 | 51.15187 | -0.17770 | 220 ft | 10 kts | 355° |
| 2026-05-05 17:54 | 51.15242 | -0.17840 | 221 ft | 12 kts | 285° |
| 2026-05-05 17:54 | 51.15227 | -0.17995 | 218 ft | 16 kts | 258° |
| 2026-05-05 17:54 | 51.15207 | -0.18172 | 211 ft | 16 kts | 278° |
| 2026-05-05 17:55 | 51.15301 | -0.18252 | 219 ft | 18 kts | 349° |
| 2026-05-05 17:55 | 51.15436 | -0.18296 | 219 ft | 21 kts | 347° |
| 2026-05-05 17:55 | 51.15565 | -0.18286 | 220 ft | 19 kts | 35° |
| 2026-05-05 17:55 | 51.15672 | -0.18176 | 220 ft | 18 kts | 69° |
| 2026-05-05 17:56 | 51.15699 | -0.17982 | 217 ft | 17 kts | 77° |
| 2026-05-05 17:56 | 51.15719 | -0.17832 | 215 ft | 1 kts | 78° |
| 2026-05-05 17:56 | 51.15720 | -0.17829 | 215 ft | 1 kts | 78° |
| 2026-05-05 17:56 | 51.15730 | -0.17752 | 211 ft | 13 kts | 78° |
| 2026-05-05 17:57 | 51.15752 | -0.17585 | 218 ft | 18 kts | 78° |
| 2026-05-05 17:57 | 51.15780 | -0.17378 | 216 ft | 17 kts | 78° |
| 2026-05-05 17:57 | 51.15807 | -0.17231 | 221 ft | 9 kts | 58° |
| 2026-05-05 17:57 | 51.15859 | -0.17218 | 217 ft | 9 kts | 347° |
| 2026-05-05 17:58 | 51.15896 | -0.17231 | 217 ft | 0 kts | 348° |